sensor_id;sensor_type;location;lat;lon;timestamp;P1;durP1;ratioP1;P2;durP2;ratioP2
31087;SDS011;17745;55.914;37.554;2023-04-01T00:01:03;15.60;;;10.48;;
31087;SDS011;17745;55.914;37.554;2023-04-01T00:03:35;15.07;;;9.95;;
31087;SDS011;17745;55.914;37.554;2023-04-01T00:06:05;15.05;;;10.13;;
31087;SDS011;17745;55.914;37.554;2023-04-01T00:08:35;16.75;;;11.43;;
31087;SDS011;17745;55.914;37.554;2023-04-01T00:11:03;18.45;;;11.35;;
31087;SDS011;17745;55.914;37.554;2023-04-01T00:13:30;17.27;;;11.75;;
31087;SDS011;17745;55.914;37.554;2023-04-01T00:15:58;21.45;;;12.68;;
31087;SDS011;17745;55.914;37.554;2023-04-01T00:18:27;20.83;;;12.68;;
31087;SDS011;17745;55.914;37.554;2023-04-01T00:20:54;19.60;;;11.98;;
31087;SDS011;17745;55.914;37.554;2023-04-01T00:23:22;20.08;;;12.05;;
31087;SDS011;17745;55.914;37.554;2023-04-01T00:25:51;19.77;;;12.85;;
31087;SDS011;17745;55.914;37.554;2023-04-01T00:28:19;21.67;;;12.02;;
31087;SDS011;17745;55.914;37.554;2023-04-01T00:30:47;16.92;;;11.50;;
31087;SDS011;17745;55.914;37.554;2023-04-01T00:33:15;20.62;;;12.15;;
31087;SDS011;17745;55.914;37.554;2023-04-01T00:35:43;18.45;;;11.20;;
31087;SDS011;17745;55.914;37.554;2023-04-01T00:38:11;19.25;;;12.32;;
31087;SDS011;17745;55.914;37.554;2023-04-01T00:40:40;18.90;;;11.15;;
31087;SDS011;17745;55.914;37.554;2023-04-01T00:43:11;24.92;;;13.32;;
31087;SDS011;17745;55.914;37.554;2023-04-01T00:45:42;20.27;;;14.13;;
31087;SDS011;17745;55.914;37.554;2023-04-01T00:48:11;20.08;;;13.52;;
31087;SDS011;17745;55.914;37.554;2023-04-01T00:50:45;23.40;;;13.60;;
31087;SDS011;17745;55.914;37.554;2023-04-01T00:53:18;22.55;;;14.23;;
31087;SDS011;17745;55.914;37.554;2023-04-01T00:55:49;24.83;;;13.05;;
31087;SDS011;17745;55.914;37.554;2023-04-01T00:58:24;19.23;;;12.55;;
31087;SDS011;17745;55.914;37.554;2023-04-01T01:00:57;21.85;;;13.38;;
31087;SDS011;17745;55.914;37.554;2023-04-01T01:03:27;21.62;;;13.48;;
31087;SDS011;17745;55.914;37.554;2023-04-01T01:05:59;23.85;;;13.20;;
31087;SDS011;17745;55.914;37.554;2023-04-01T01:11:36;19.08;;;11.63;;
31087;SDS011;17745;55.914;37.554;2023-04-01T01:14:12;18.62;;;11.45;;
31087;SDS011;17745;55.914;37.554;2023-04-01T01:16:51;17.87;;;11.48;;
31087;SDS011;17745;55.914;37.554;2023-04-01T01:19:31;17.35;;;11.73;;
31087;SDS011;17745;55.914;37.554;2023-04-01T01:22:18;16.62;;;10.38;;
31087;SDS011;17745;55.914;37.554;2023-04-01T01:27:49;15.10;;;9.98;;
31087;SDS011;17745;55.914;37.554;2023-04-01T01:30:30;16.60;;;9.48;;
31087;SDS011;17745;55.914;37.554;2023-04-01T01:36:17;16.05;;;9.90;;
31087;SDS011;17745;55.914;37.554;2023-04-01T01:38:47;16.58;;;10.00;;
31087;SDS011;17745;55.914;37.554;2023-04-01T01:41:17;16.75;;;10.60;;
31087;SDS011;17745;55.914;37.554;2023-04-01T01:43:49;15.15;;;10.40;;
31087;SDS011;17745;55.914;37.554;2023-04-01T01:46:21;16.92;;;10.90;;
31087;SDS011;17745;55.914;37.554;2023-04-01T01:48:52;16.02;;;10.68;;
31087;SDS011;17745;55.914;37.554;2023-04-01T01:51:23;17.83;;;10.73;;
31087;SDS011;17745;55.914;37.554;2023-04-01T01:53:53;16.02;;;10.82;;
31087;SDS011;17745;55.914;37.554;2023-04-01T01:56:22;16.50;;;10.75;;
31087;SDS011;17745;55.914;37.554;2023-04-01T01:58:54;14.57;;;9.45;;
31087;SDS011;17745;55.914;37.554;2023-04-01T02:01:28;11.98;;;7.87;;
31087;SDS011;17745;55.914;37.554;2023-04-01T02:03:59;13.65;;;9.05;;
31087;SDS011;17745;55.914;37.554;2023-04-01T02:06:29;11.82;;;7.97;;
31087;SDS011;17745;55.914;37.554;2023-04-01T02:09:02;15.13;;;9.35;;
31087;SDS011;17745;55.914;37.554;2023-04-01T02:11:34;18.90;;;10.65;;
31087;SDS011;17745;55.914;37.554;2023-04-01T02:14:07;16.67;;;11.60;;
31087;SDS011;17745;55.914;37.554;2023-04-01T02:16:58;16.00;;;10.43;;
31087;SDS011;17745;55.914;37.554;2023-04-01T02:19:30;17.20;;;10.88;;
31087;SDS011;17745;55.914;37.554;2023-04-01T02:22:04;15.95;;;10.82;;
31087;SDS011;17745;55.914;37.554;2023-04-01T02:24:36;15.18;;;10.55;;
31087;SDS011;17745;55.914;37.554;2023-04-01T02:27:05;18.27;;;12.35;;
31087;SDS011;17745;55.914;37.554;2023-04-01T02:29:33;15.23;;;10.15;;
31087;SDS011;17745;55.914;37.554;2023-04-01T02:32:01;14.20;;;9.20;;
31087;SDS011;17745;55.914;37.554;2023-04-01T02:34:30;12.63;;;8.93;;
31087;SDS011;17745;55.914;37.554;2023-04-01T02:37:00;16.73;;;11.05;;
31087;SDS011;17745;55.914;37.554;2023-04-01T02:39:30;17.62;;;10.48;;
31087;SDS011;17745;55.914;37.554;2023-04-01T02:41:58;16.05;;;10.63;;
31087;SDS011;17745;55.914;37.554;2023-04-01T02:44:26;16.62;;;11.07;;
31087;SDS011;17745;55.914;37.554;2023-04-01T02:46:53;18.65;;;11.85;;
31087;SDS011;17745;55.914;37.554;2023-04-01T02:49:21;19.33;;;11.73;;
31087;SDS011;17745;55.914;37.554;2023-04-01T02:51:48;15.35;;;10.18;;
31087;SDS011;17745;55.914;37.554;2023-04-01T02:54:17;19.05;;;11.12;;
31087;SDS011;17745;55.914;37.554;2023-04-01T02:56:46;17.67;;;10.80;;
31087;SDS011;17745;55.914;37.554;2023-04-01T02:59:14;16.92;;;10.63;;
31087;SDS011;17745;55.914;37.554;2023-04-01T03:01:41;18.27;;;11.38;;
31087;SDS011;17745;55.914;37.554;2023-04-01T03:04:10;16.77;;;10.88;;
31087;SDS011;17745;55.914;37.554;2023-04-01T03:06:37;16.75;;;11.12;;
31087;SDS011;17745;55.914;37.554;2023-04-01T03:09:04;16.80;;;10.82;;
31087;SDS011;17745;55.914;37.554;2023-04-01T03:11:32;17.33;;;11.27;;
31087;SDS011;17745;55.914;37.554;2023-04-01T03:14:02;15.70;;;10.60;;
31087;SDS011;17745;55.914;37.554;2023-04-01T03:16:30;19.12;;;11.73;;
31087;SDS011;17745;55.914;37.554;2023-04-01T03:18:57;17.05;;;11.73;;
31087;SDS011;17745;55.914;37.554;2023-04-01T03:21:28;16.27;;;11.10;;
31087;SDS011;17745;55.914;37.554;2023-04-01T03:23:57;18.05;;;11.20;;
31087;SDS011;17745;55.914;37.554;2023-04-01T03:26:25;18.33;;;10.95;;
31087;SDS011;17745;55.914;37.554;2023-04-01T03:28:53;20.20;;;12.05;;
31087;SDS011;17745;55.914;37.554;2023-04-01T03:31:24;16.60;;;10.57;;
31087;SDS011;17745;55.914;37.554;2023-04-01T03:33:52;16.45;;;10.65;;
31087;SDS011;17745;55.914;37.554;2023-04-01T03:36:23;16.17;;;10.77;;
31087;SDS011;17745;55.914;37.554;2023-04-01T03:38:50;15.18;;;10.65;;
31087;SDS011;17745;55.914;37.554;2023-04-01T03:41:23;17.30;;;11.38;;
31087;SDS011;17745;55.914;37.554;2023-04-01T03:43:57;13.82;;;9.90;;
31087;SDS011;17745;55.914;37.554;2023-04-01T03:46:29;15.65;;;10.48;;
31087;SDS011;17745;55.914;37.554;2023-04-01T03:48:57;16.40;;;11.15;;
31087;SDS011;17745;55.914;37.554;2023-04-01T03:51:24;18.00;;;10.70;;
31087;SDS011;17745;55.914;37.554;2023-04-01T03:53:53;19.48;;;10.40;;
31087;SDS011;17745;55.914;37.554;2023-04-01T03:56:21;16.20;;;10.52;;
31087;SDS011;17745;55.914;37.554;2023-04-01T03:58:49;16.75;;;10.75;;
31087;SDS011;17745;55.914;37.554;2023-04-01T04:01:18;16.50;;;10.68;;
31087;SDS011;17745;55.914;37.554;2023-04-01T04:03:50;17.40;;;10.43;;
31087;SDS011;17745;55.914;37.554;2023-04-01T04:06:18;13.62;;;9.73;;
31087;SDS011;17745;55.914;37.554;2023-04-01T04:08:47;14.87;;;10.45;;
31087;SDS011;17745;55.914;37.554;2023-04-01T04:11:16;15.68;;;10.13;;
31087;SDS011;17745;55.914;37.554;2023-04-01T04:13:46;18.83;;;12.02;;
31087;SDS011;17745;55.914;37.554;2023-04-01T04:16:14;16.67;;;11.05;;
31087;SDS011;17745;55.914;37.554;2023-04-01T04:18:43;15.27;;;10.65;;
31087;SDS011;17745;55.914;37.554;2023-04-01T04:21:16;17.62;;;11.43;;
31087;SDS011;17745;55.914;37.554;2023-04-01T04:23:46;18.62;;;12.07;;
31087;SDS011;17745;55.914;37.554;2023-04-01T04:26:14;19.17;;;11.07;;
31087;SDS011;17745;55.914;37.554;2023-04-01T04:28:44;24.92;;;12.30;;
31087;SDS011;17745;55.914;37.554;2023-04-01T04:31:13;21.87;;;10.43;;
31087;SDS011;17745;55.914;37.554;2023-04-01T04:33:46;23.15;;;12.20;;
31087;SDS011;17745;55.914;37.554;2023-04-01T04:36:16;18.62;;;11.60;;
31087;SDS011;17745;55.914;37.554;2023-04-01T04:38:44;17.73;;;11.95;;
31087;SDS011;17745;55.914;37.554;2023-04-01T04:41:13;23.15;;;12.95;;
31087;SDS011;17745;55.914;37.554;2023-04-01T04:43:48;24.58;;;12.82;;
31087;SDS011;17745;55.914;37.554;2023-04-01T04:46:16;17.62;;;11.05;;
31087;SDS011;17745;55.914;37.554;2023-04-01T04:48:45;21.58;;;11.68;;
31087;SDS011;17745;55.914;37.554;2023-04-01T04:51:16;22.33;;;12.93;;
31087;SDS011;17745;55.914;37.554;2023-04-01T04:53:45;20.90;;;11.82;;
31087;SDS011;17745;55.914;37.554;2023-04-01T04:56:17;24.00;;;13.18;;
31087;SDS011;17745;55.914;37.554;2023-04-01T04:58:46;22.25;;;13.65;;
31087;SDS011;17745;55.914;37.554;2023-04-01T05:01:15;24.42;;;14.02;;
31087;SDS011;17745;55.914;37.554;2023-04-01T05:03:43;23.83;;;13.90;;
31087;SDS011;17745;55.914;37.554;2023-04-01T05:06:13;27.20;;;14.52;;
31087;SDS011;17745;55.914;37.554;2023-04-01T05:08:46;31.85;;;16.83;;
31087;SDS011;17745;55.914;37.554;2023-04-01T05:11:14;28.67;;;15.43;;
31087;SDS011;17745;55.914;37.554;2023-04-01T05:13:43;24.37;;;15.38;;
31087;SDS011;17745;55.914;37.554;2023-04-01T05:16:12;26.52;;;15.70;;
31087;SDS011;17745;55.914;37.554;2023-04-01T05:18:42;29.40;;;15.85;;
31087;SDS011;17745;55.914;37.554;2023-04-01T05:21:10;27.17;;;14.90;;
31087;SDS011;17745;55.914;37.554;2023-04-01T05:23:41;28.62;;;15.73;;
31087;SDS011;17745;55.914;37.554;2023-04-01T05:26:11;22.77;;;14.55;;
31087;SDS011;17745;55.914;37.554;2023-04-01T05:28:40;27.35;;;14.77;;
31087;SDS011;17745;55.914;37.554;2023-04-01T05:31:12;27.05;;;16.35;;
31087;SDS011;17745;55.914;37.554;2023-04-01T05:33:40;26.62;;;14.70;;
31087;SDS011;17745;55.914;37.554;2023-04-01T05:36:09;30.05;;;15.02;;
31087;SDS011;17745;55.914;37.554;2023-04-01T05:38:42;21.95;;;14.93;;
31087;SDS011;17745;55.914;37.554;2023-04-01T05:41:11;28.33;;;17.37;;
31087;SDS011;17745;55.914;37.554;2023-04-01T05:43:41;22.95;;;14.90;;
31087;SDS011;17745;55.914;37.554;2023-04-01T05:46:22;29.77;;;18.17;;
31087;SDS011;17745;55.914;37.554;2023-04-01T05:48:50;29.65;;;19.23;;
31087;SDS011;17745;55.914;37.554;2023-04-01T05:51:19;29.30;;;19.02;;
31087;SDS011;17745;55.914;37.554;2023-04-01T05:53:48;27.80;;;17.30;;
31087;SDS011;17745;55.914;37.554;2023-04-01T05:56:16;31.23;;;18.02;;
31087;SDS011;17745;55.914;37.554;2023-04-01T05:58:45;21.45;;;12.93;;
31087;SDS011;17745;55.914;37.554;2023-04-01T06:01:21;25.48;;;12.82;;
31087;SDS011;17745;55.914;37.554;2023-04-01T06:03:49;18.35;;;12.07;;
31087;SDS011;17745;55.914;37.554;2023-04-01T06:06:20;20.48;;;12.75;;
31087;SDS011;17745;55.914;37.554;2023-04-01T06:08:54;22.62;;;13.02;;
31087;SDS011;17745;55.914;37.554;2023-04-01T06:11:28;19.77;;;11.95;;
31087;SDS011;17745;55.914;37.554;2023-04-01T06:14:08;23.92;;;13.02;;
31087;SDS011;17745;55.914;37.554;2023-04-01T06:16:49;18.42;;;12.45;;
31087;SDS011;17745;55.914;37.554;2023-04-01T06:19:32;20.20;;;12.90;;
31087;SDS011;17745;55.914;37.554;2023-04-01T06:28:23;23.33;;;13.90;;
31087;SDS011;17745;55.914;37.554;2023-04-01T06:31:09;23.33;;;13.48;;
31087;SDS011;17745;55.914;37.554;2023-04-01T06:33:46;21.37;;;13.45;;
31087;SDS011;17745;55.914;37.554;2023-04-01T06:36:26;20.55;;;13.07;;
31087;SDS011;17745;55.914;37.554;2023-04-01T06:39:07;22.10;;;13.27;;
31087;SDS011;17745;55.914;37.554;2023-04-01T06:42:04;24.65;;;14.82;;
31087;SDS011;17745;55.914;37.554;2023-04-01T06:44:49;23.02;;;13.25;;
31087;SDS011;17745;55.914;37.554;2023-04-01T06:47:50;20.85;;;12.27;;
31087;SDS011;17745;55.914;37.554;2023-04-01T06:50:33;22.45;;;12.15;;
31087;SDS011;17745;55.914;37.554;2023-04-01T06:53:25;19.25;;;12.27;;
31087;SDS011;17745;55.914;37.554;2023-04-01T06:56:09;20.37;;;12.13;;
31087;SDS011;17745;55.914;37.554;2023-04-01T06:58:44;17.30;;;12.35;;
31087;SDS011;17745;55.914;37.554;2023-04-01T07:01:16;17.40;;;11.18;;
31087;SDS011;17745;55.914;37.554;2023-04-01T07:03:49;19.67;;;11.18;;
31087;SDS011;17745;55.914;37.554;2023-04-01T07:06:23;21.80;;;11.63;;
31087;SDS011;17745;55.914;37.554;2023-04-01T07:08:57;21.48;;;12.45;;
31087;SDS011;17745;55.914;37.554;2023-04-01T07:11:32;14.63;;;10.93;;
31087;SDS011;17745;55.914;37.554;2023-04-01T07:14:06;16.55;;;11.30;;
31087;SDS011;17745;55.914;37.554;2023-04-01T07:16:44;19.75;;;11.00;;
31087;SDS011;17745;55.914;37.554;2023-04-01T07:19:18;22.37;;;13.30;;
31087;SDS011;17745;55.914;37.554;2023-04-01T07:21:52;18.80;;;12.02;;
31087;SDS011;17745;55.914;37.554;2023-04-01T07:24:27;18.23;;;12.43;;
31087;SDS011;17745;55.914;37.554;2023-04-01T07:26:59;17.02;;;11.98;;
31087;SDS011;17745;55.914;37.554;2023-04-01T07:29:30;23.15;;;12.48;;
31087;SDS011;17745;55.914;37.554;2023-04-01T07:34:55;21.02;;;13.05;;
31087;SDS011;17745;55.914;37.554;2023-04-01T07:37:36;22.17;;;13.60;;
31087;SDS011;17745;55.914;37.554;2023-04-01T07:40:13;18.90;;;13.07;;
31087;SDS011;17745;55.914;37.554;2023-04-01T07:42:57;17.45;;;11.90;;
31087;SDS011;17745;55.914;37.554;2023-04-01T07:45:45;21.42;;;13.32;;
31087;SDS011;17745;55.914;37.554;2023-04-01T07:48:20;21.30;;;13.10;;
31087;SDS011;17745;55.914;37.554;2023-04-01T07:50:55;18.83;;;12.77;;
31087;SDS011;17745;55.914;37.554;2023-04-01T07:53:31;19.30;;;12.23;;
31087;SDS011;17745;55.914;37.554;2023-04-01T07:56:05;16.55;;;12.55;;
31087;SDS011;17745;55.914;37.554;2023-04-01T07:58:38;22.00;;;12.32;;
31087;SDS011;17745;55.914;37.554;2023-04-01T08:01:30;18.65;;;12.60;;
31087;SDS011;17745;55.914;37.554;2023-04-01T08:07:00;16.45;;;11.68;;
31087;SDS011;17745;55.914;37.554;2023-04-01T08:12:27;16.05;;;11.05;;
31087;SDS011;17745;55.914;37.554;2023-04-01T08:15:11;16.85;;;10.77;;
31087;SDS011;17745;55.914;37.554;2023-04-01T08:17:54;15.10;;;9.07;;
31087;SDS011;17745;55.914;37.554;2023-04-01T08:20:33;15.25;;;10.48;;
31087;SDS011;17745;55.914;37.554;2023-04-01T08:23:09;18.10;;;10.27;;
31087;SDS011;17745;55.914;37.554;2023-04-01T08:25:42;19.15;;;11.12;;
31087;SDS011;17745;55.914;37.554;2023-04-01T08:28:17;15.68;;;10.68;;
31087;SDS011;17745;55.914;37.554;2023-04-01T08:30:53;18.23;;;10.02;;
31087;SDS011;17745;55.914;37.554;2023-04-01T08:33:27;18.12;;;11.85;;
31087;SDS011;17745;55.914;37.554;2023-04-01T08:35:59;17.62;;;11.85;;
31087;SDS011;17745;55.914;37.554;2023-04-01T08:38:39;21.40;;;12.90;;
31087;SDS011;17745;55.914;37.554;2023-04-01T08:41:36;18.85;;;11.93;;
31087;SDS011;17745;55.914;37.554;2023-04-01T08:55:51;20.58;;;11.93;;
31087;SDS011;17745;55.914;37.554;2023-04-01T09:02:44;20.25;;;11.02;;
31087;SDS011;17745;55.914;37.554;2023-04-01T09:16:28;23.85;;;12.37;;
31087;SDS011;17745;55.914;37.554;2023-04-01T09:19:39;23.95;;;12.23;;
31087;SDS011;17745;55.914;37.554;2023-04-01T09:26:57;21.35;;;11.82;;
31087;SDS011;17745;55.914;37.554;2023-04-01T09:33:32;24.23;;;14.05;;
31087;SDS011;17745;55.914;37.554;2023-04-01T09:37:18;25.80;;;13.50;;
31087;SDS011;17745;55.914;37.554;2023-04-01T09:40:48;22.10;;;13.20;;
31087;SDS011;17745;55.914;37.554;2023-04-01T09:44:08;23.98;;;13.32;;
31087;SDS011;17745;55.914;37.554;2023-04-01T09:47:28;20.35;;;13.10;;
31087;SDS011;17745;55.914;37.554;2023-04-01T09:54:17;23.73;;;12.35;;
31087;SDS011;17745;55.914;37.554;2023-04-01T10:15:11;19.27;;;9.23;;
31087;SDS011;17745;55.914;37.554;2023-04-01T10:38:14;19.77;;;10.73;;
31087;SDS011;17745;55.914;37.554;2023-04-01T10:41:16;20.37;;;10.48;;
31087;SDS011;17745;55.914;37.554;2023-04-01T10:44:33;21.37;;;11.85;;
31087;SDS011;17745;55.914;37.554;2023-04-01T10:49:10;18.30;;;10.80;;
31087;SDS011;17745;55.914;37.554;2023-04-01T11:13:51;18.37;;;9.85;;
31087;SDS011;17745;55.914;37.554;2023-04-01T11:17:15;15.60;;;9.32;;
31087;SDS011;17745;55.914;37.554;2023-04-01T11:27:35;19.80;;;8.45;;
31087;SDS011;17745;55.914;37.554;2023-04-01T11:30:33;18.25;;;8.82;;
31087;SDS011;17745;55.914;37.554;2023-04-01T11:33:42;16.67;;;8.10;;
31087;SDS011;17745;55.914;37.554;2023-04-01T11:36:41;9.90;;;6.80;;
31087;SDS011;17745;55.914;37.554;2023-04-01T11:46:22;13.82;;;7.30;;
31087;SDS011;17745;55.914;37.554;2023-04-01T11:49:21;15.73;;;7.28;;
31087;SDS011;17745;55.914;37.554;2023-04-01T11:52:44;21.65;;;7.93;;
31087;SDS011;17745;55.914;37.554;2023-04-01T12:55:54;12.23;;;6.03;;
31087;SDS011;17745;55.914;37.554;2023-04-01T12:59:05;17.30;;;6.50;;
31087;SDS011;17745;55.914;37.554;2023-04-01T13:10:15;15.10;;;7.60;;
31087;SDS011;17745;55.914;37.554;2023-04-01T13:24:13;16.40;;;6.90;;
31087;SDS011;17745;55.914;37.554;2023-04-01T13:27:29;19.20;;;6.70;;
31087;SDS011;17745;55.914;37.554;2023-04-01T13:30:44;11.98;;;6.70;;
31087;SDS011;17745;55.914;37.554;2023-04-01T14:13:28;17.75;;;7.43;;
31087;SDS011;17745;55.914;37.554;2023-04-01T14:20:00;16.02;;;7.15;;
31087;SDS011;17745;55.914;37.554;2023-04-01T14:23:17;17.25;;;7.95;;
31087;SDS011;17745;55.914;37.554;2023-04-01T16:13:58;20.52;;;11.38;;
31087;SDS011;17745;55.914;37.554;2023-04-01T16:21:08;17.98;;;11.82;;
31087;SDS011;17745;55.914;37.554;2023-04-01T16:25:01;19.00;;;12.77;;
31087;SDS011;17745;55.914;37.554;2023-04-01T16:57:43;25.50;;;14.93;;
31087;SDS011;17745;55.914;37.554;2023-04-01T17:00:47;22.73;;;14.77;;
31087;SDS011;17745;55.914;37.554;2023-04-01T17:11:56;25.25;;;15.63;;
31087;SDS011;17745;55.914;37.554;2023-04-01T17:27:49;21.30;;;11.93;;
31087;SDS011;17745;55.914;37.554;2023-04-01T17:32:09;18.02;;;10.57;;
31087;SDS011;17745;55.914;37.554;2023-04-01T19:41:39;19.25;;;13.23;;
31087;SDS011;17745;55.914;37.554;2023-04-01T19:44:42;19.73;;;12.60;;
31087;SDS011;17745;55.914;37.554;2023-04-01T19:48:26;18.95;;;13.00;;
31087;SDS011;17745;55.914;37.554;2023-04-01T19:51:50;19.23;;;12.48;;
31087;SDS011;17745;55.914;37.554;2023-04-01T19:55:21;20.35;;;12.95;;
31087;SDS011;17745;55.914;37.554;2023-04-01T20:11:47;23.20;;;14.20;;
31087;SDS011;17745;55.914;37.554;2023-04-01T20:14:40;27.37;;;15.32;;
31087;SDS011;17745;55.914;37.554;2023-04-01T20:17:38;21.33;;;14.60;;
31087;SDS011;17745;55.914;37.554;2023-04-01T20:31:39;24.98;;;14.65;;
31087;SDS011;17745;55.914;37.554;2023-04-01T20:38:00;25.33;;;14.45;;
31087;SDS011;17745;55.914;37.554;2023-04-01T20:41:23;24.95;;;15.43;;
31087;SDS011;17745;55.914;37.554;2023-04-01T20:44:29;25.50;;;15.27;;
31087;SDS011;17745;55.914;37.554;2023-04-01T20:47:57;26.40;;;16.20;;
31087;SDS011;17745;55.914;37.554;2023-04-01T20:51:07;26.10;;;16.60;;
31087;SDS011;17745;55.914;37.554;2023-04-01T20:54:19;30.73;;;17.05;;
31087;SDS011;17745;55.914;37.554;2023-04-01T20:58:17;32.15;;;19.45;;
31087;SDS011;17745;55.914;37.554;2023-04-01T21:05:38;34.80;;;17.37;;
31087;SDS011;17745;55.914;37.554;2023-04-01T21:08:22;29.67;;;16.58;;
31087;SDS011;17745;55.914;37.554;2023-04-01T21:11:07;30.12;;;17.98;;
31087;SDS011;17745;55.914;37.554;2023-04-01T21:13:47;29.83;;;18.50;;
31087;SDS011;17745;55.914;37.554;2023-04-01T21:16:37;32.90;;;18.67;;
31087;SDS011;17745;55.914;37.554;2023-04-01T21:19:27;30.15;;;18.10;;
31087;SDS011;17745;55.914;37.554;2023-04-01T21:22:21;31.15;;;18.50;;
31087;SDS011;17745;55.914;37.554;2023-04-01T21:28:15;32.25;;;18.85;;
31087;SDS011;17745;55.914;37.554;2023-04-01T21:33:55;25.55;;;15.77;;
31087;SDS011;17745;55.914;37.554;2023-04-01T21:36:40;23.80;;;15.05;;
31087;SDS011;17745;55.914;37.554;2023-04-01T21:39:34;26.77;;;15.35;;
31087;SDS011;17745;55.914;37.554;2023-04-01T21:42:21;25.42;;;15.77;;
31087;SDS011;17745;55.914;37.554;2023-04-01T21:45:09;25.55;;;15.02;;
31087;SDS011;17745;55.914;37.554;2023-04-01T21:54:22;26.12;;;14.32;;
31087;SDS011;17745;55.914;37.554;2023-04-01T22:00:39;30.40;;;18.60;;
31087;SDS011;17745;55.914;37.554;2023-04-01T22:06:26;27.20;;;17.95;;
31087;SDS011;17745;55.914;37.554;2023-04-01T22:09:09;32.40;;;21.42;;
31087;SDS011;17745;55.914;37.554;2023-04-01T22:11:42;29.85;;;20.00;;
31087;SDS011;17745;55.914;37.554;2023-04-01T22:14:24;28.77;;;19.10;;
31087;SDS011;17745;55.914;37.554;2023-04-01T22:17:05;28.92;;;18.58;;
31087;SDS011;17745;55.914;37.554;2023-04-01T22:19:40;28.20;;;18.27;;
31087;SDS011;17745;55.914;37.554;2023-04-01T22:22:20;28.38;;;16.80;;
31087;SDS011;17745;55.914;37.554;2023-04-01T22:24:58;24.80;;;15.25;;
31087;SDS011;17745;55.914;37.554;2023-04-01T22:28:15;24.10;;;15.40;;
31087;SDS011;17745;55.914;37.554;2023-04-01T22:31:36;26.92;;;15.73;;
31087;SDS011;17745;55.914;37.554;2023-04-01T22:34:41;27.00;;;15.00;;
31087;SDS011;17745;55.914;37.554;2023-04-01T22:37:19;25.02;;;14.90;;
31087;SDS011;17745;55.914;37.554;2023-04-01T22:39:57;23.23;;;15.27;;
31087;SDS011;17745;55.914;37.554;2023-04-01T22:42:41;25.70;;;14.65;;
31087;SDS011;17745;55.914;37.554;2023-04-01T22:45:18;23.27;;;15.00;;
31087;SDS011;17745;55.914;37.554;2023-04-01T22:47:55;25.27;;;14.65;;
31087;SDS011;17745;55.914;37.554;2023-04-01T22:50:33;24.05;;;14.95;;
31087;SDS011;17745;55.914;37.554;2023-04-01T22:53:08;25.27;;;15.73;;
31087;SDS011;17745;55.914;37.554;2023-04-01T22:55:46;28.38;;;16.00;;
31087;SDS011;17745;55.914;37.554;2023-04-01T22:58:18;27.87;;;17.08;;
31087;SDS011;17745;55.914;37.554;2023-04-01T23:00:48;31.30;;;17.55;;
31087;SDS011;17745;55.914;37.554;2023-04-01T23:03:21;27.67;;;16.92;;
31087;SDS011;17745;55.914;37.554;2023-04-01T23:05:54;25.33;;;16.00;;
31087;SDS011;17745;55.914;37.554;2023-04-01T23:08:39;26.85;;;16.58;;
31087;SDS011;17745;55.914;37.554;2023-04-01T23:11:24;23.85;;;14.85;;
31087;SDS011;17745;55.914;37.554;2023-04-01T23:14:00;25.92;;;16.35;;
31087;SDS011;17745;55.914;37.554;2023-04-01T23:16:34;29.48;;;16.62;;
31087;SDS011;17745;55.914;37.554;2023-04-01T23:19:08;28.25;;;17.10;;
31087;SDS011;17745;55.914;37.554;2023-04-01T23:21:40;27.83;;;16.65;;
31087;SDS011;17745;55.914;37.554;2023-04-01T23:24:13;32.85;;;17.73;;
31087;SDS011;17745;55.914;37.554;2023-04-01T23:26:49;26.42;;;16.65;;
31087;SDS011;17745;55.914;37.554;2023-04-01T23:29:22;24.17;;;16.90;;
31087;SDS011;17745;55.914;37.554;2023-04-01T23:31:56;27.83;;;16.60;;
31087;SDS011;17745;55.914;37.554;2023-04-01T23:37:04;31.92;;;17.73;;
31087;SDS011;17745;55.914;37.554;2023-04-01T23:39:35;25.83;;;15.90;;
31087;SDS011;17745;55.914;37.554;2023-04-01T23:42:06;31.52;;;17.12;;
31087;SDS011;17745;55.914;37.554;2023-04-01T23:44:39;26.70;;;15.45;;
31087;SDS011;17745;55.914;37.554;2023-04-01T23:47:08;27.90;;;17.12;;
31087;SDS011;17745;55.914;37.554;2023-04-01T23:49:44;26.02;;;17.15;;
31087;SDS011;17745;55.914;37.554;2023-04-01T23:52:19;30.17;;;18.45;;
31087;SDS011;17745;55.914;37.554;2023-04-01T23:54:51;30.25;;;18.00;;
31087;SDS011;17745;55.914;37.554;2023-04-01T23:57:22;30.08;;;18.52;;
